ADDS METAR Data INFO
IDs: Format: Raw Decoded Include TAF

Data at: 1811 UTC 18 Feb 2018

KRFD 181754Z 18016G22KT 5SM BR SCT007 OVC250 M02/M05 A3017 RMK AO2 SLP227 4/003 933007 T10221050 11017 21100 58026
KRFD 181750Z 17018G22KT 5SM BR SCT007 OVC250 M02/M04 A3018 RMK AO2 4/003 933007
KRFD 181727Z 17018KT 2SM BR OVC006 M03/M04 A3019 RMK AO2 PRESFR T10281044
KRFD 181718Z 17015KT 1 3/4SM BR BKN006 M03/M04 A3021 RMK AO2 SFC VIS 2 CIG 004V009 T10281044
KRFD 181654Z 17015KT 1 3/4SM BR OVC003 M04/M06 A3022 RMK AO2 SLP246 T10391056
KRFD 181641Z 17010KT 1SM R01/P6000FT BR OVC003 M04/M06 A3023 RMK AO2 TWR VIS 1 3/4 T10441056
KRFD 181615Z 18010KT 1/2SM R01/3000VP6000FT FZFG OVC002 M06/M06 A3024 RMK AO2 T10561061
KRFD 181608Z 18010KT 1/4SM R01/2600VP6000FT FZFG OVC003 M06/M07 A3025 RMK AO2 SFC VIS 1/2 T10561067
KRFD 181601Z 19013KT 1/2SM R01/2400V3000FT FZFG OVC003 M06/M07 A3025 RMK AO2 T10561067
KRFD 181554Z 19012KT 1SM R01/2400VP6000FT BR OVC003 M06/M07 A3025 RMK AO2 SLP255 T10561067
KRFD 181454Z 17006KT 1/4SM R01/2000V2600FT FZFG VV002 M07/M08 A3025 RMK AO2 SLP255 T10721083 53005
KRFD 181446Z 18006KT 1/4SM R01/1800V2400FT FZFG VV002 M08/M08 A3025 RMK AO2 TWR VIS 1/4 T10781083
KRFD 181354Z 15003KT M1/4SM R01/1200V1600FT FZFG VV002 M09/M10 A3023 RMK AO2 TWR VIS 1/4 SLP248 T10891100
KRFD 181254Z 13003KT 1/4SM R01/1000V1200FT FZFG VV002 M10/M11 A3021 RMK AO2 TWR VIS 1/4 SLP243 T11001106
KRFD 181212Z 12003KT 1/4SM R01/1600V1800FT FZFG VV002 M10/M11 A3023 RMK AO2 TWR VIS 1/4 T11001106
KRFD 181154Z 14005KT 1/4SM R01/2000V3500FT FZFG VV002 M10/M11 A3023 RMK AO2 TWR VIS 3/4 SLP250 4/003 70011 I1000 I6002 T11001111 11050 21111 50002
KRFD 181150Z 13004KT 1/4SM R01/1200V3500FT FZFG VV002 M10/M11 A3023 RMK AO2 TWR VIS 3/4 4/003
KRFD 181107Z 00000KT 1/4SM R01/1400V2200FT FZFG VV002 M10/M11 A3025 RMK AO2 TWR VIS 3/4 T11001111
KRFD 181054Z 18004KT 1/4SM R01/1600VP6000FT FZFG VV002 M10/M11 A3024 RMK AO2 TWR VIS 3/4 SLP252 T11001111
KRFD 181046Z 19005KT 3/4SM R01/4000VP6000FT BR OVC002 M10/M11 A3024 RMK AO2 SFC VIS 1 T11001111
KRFD 181039Z 18004KT 1SM R01/P6000FT BR OVC002 M11/M12 A3024 RMK AO2 T11061117
KRFD 181032Z 18004KT 1 3/4SM BR BKN002 M11/M12 A3024 RMK AO2 T11111122
KRFD 181008Z 18003KT 2SM BR SCT002 M10/M12 A3023 RMK AO2 T11001117
KRFD 180954Z 17003KT 4SM BR CLR M08/M09 A3023 RMK AO2 SLP246 I1001 T10831094
KRFD 180854Z 17005KT 7SM CLR M08/M10 A3022 RMK AO2 SLP245 I3001 T10831100 50015
KRFD 180754Z 19004KT 7SM CLR M08/M08 A3022 RMK AO2 SLP245 I1001 T10781083
KRFD 180654Z 20004KT 9SM CLR M07/M08 A3019 RMK AO2 SLP236 T10671078
KRFD 180554Z 21004KT 10SM CLR M06/M07 A3017 RMK AO2 SLP229 4/003 T10561072 11017 21056 410061117 51022
KRFD 180454Z 28006KT 10SM FEW015 M04/M07 A3013 RMK AO2 SLP214 T10441067
KRFD 180354Z 23005KT 10SM OVC017 M03/M06 A3015 RMK AO2 PRESRR SLP221 T10331061
KRFD 180339Z 25006KT 10SM BKN017 M04/M07 A3014 RMK AO2 T10391067
KRFD 180254Z 28008KT 10SM SCT017 M03/M06 A3011 RMK AO2 SLP206 T10281061 51027
KRFD 180154Z 29010KT 10SM BKN019 M02/M06 A3009 RMK AO2 SLP201 T10221056
KRFD 180054Z 30010KT 10SM OVC016 M02/M04 A3007 RMK AO2 SLP194 T10171044
KRFD 172354Z 30013KT 6SM BR SCT013 OVC018 M02/M04 A3003 RMK AO2 SNE25 SLP179 4/003 P0000 60011 T10171039 11006 21022 53029
KRFD 172304Z 29007KT 3SM -SN BR FEW006 BKN021 BKN042 M02/M04 A2999 RMK AO2 PRESRR P0000 T10221039
KRFD 172250Z 29007KT 2 1/2SM -SN BR FEW006 SCT023 BKN030 M02/M03 A2998 RMK AO2 SLP162 P0001 T10171033
KRFD 172249Z 29008KT 2 1/2SM -SN BR FEW006 SCT023 BKN030 M02/M03 A2997 RMK AO2 P0001
KRFD 172238Z 31008KT 1 1/2SM R01/4500VP6000FT -SN BR SCT006 SCT013 OVC020 M01/M02 A2997 RMK AO2 P0001 T10111022
KRFD 172230Z 31006KT 1/2SM R01/3500V4500FT -SN BR BKN008 OVC014 M01/M02 A2996 RMK AO2 SFC VIS 3/4 P0001 T10111022
KRFD 172201Z 29003KT 1/2SM R01/4000V6000FT -SN BR FEW005 BKN013 OVC023 M01/M02 A2996 RMK AO2 SFC VIS 3/4 P0000 T10111022
KRFD 172154Z 30003KT 1/2SM R01/3500V4500FT -SN FZFG BKN011 OVC024 M01/M02 A2996 RMK AO2 SLP155 P0005 T10111022
KRFD 172146Z 00000KT 1/4SM R01/2800V3500FT SN FZFG VV011 M01/M02 A2995 RMK AO2 SFC VIS 1/2 P0005 T10061022
KRFD 172101Z 20005KT 1/4SM R01/2400V2800FT -SN FZFG VV008 M02/M02 A2994 RMK AO2 P0001 T10171022
KRFD 172054Z 20005KT 1/2SM R01/2200V2800FT -SN FZFG VV007 M02/M02 A2994 RMK AO2 SNB1958 SLP151 P0005 60005 T10171022 55018
KRFD 172033Z 18008KT 1/2SM R01/2400V3000FT -SN FZFG VV008 M02/M03 A2993 RMK AO2 SNB1958 P0002 T10171028
KRFD 172023Z 19010KT 1/2SM R01/3000V4500FT -SN FZFG VV011 M02/M03 A2993 RMK AO2 SNB1958 P0001 T10171028
KRFD 172005Z COR 19009KT 1/2SM R01/3500VP6000FT -SN FZFG BKN023 BKN049 OVC060 M01/M03 A2993 RMK AO2 SNB1958 P0000 T10111033
KRFD 172001Z 19008KT 1SM R01/4000VP6000FT -SN BR FEW020 BKN031 OVC060 M01/M04 A2993 RMK AO2 SNB1958 P0000 T10111039
KRFD 171954Z 20010KT 8SM FEW020 BKN050 OVC065 M01/M04 A2994 RMK AO2 SLP149 T10061039
KRFD 171854Z 19010KT 10SM BKN075 OVC090 M01/M04 A2995 RMK AO2 SLP154 T10111044
KRFD 171754Z 18008KT 10SM BKN070 OVC090 M02/M06 A2999 RMK AO2 SLP168 4/002 933005 T10221056 11017 21106 58028
KRFD 171654Z 19007KT 10SM BKN080 OVC095 M03/M08 A3004 RMK AO2 SLP184 T10331078
KRFD 171554Z 19008KT 10SM OVC095 M04/M10 A3006 RMK AO2 SLP191 T10441100
KRFD 171454Z 19007KT 10SM BKN100 OVC120 M06/M11 A3008 RMK AO2 SLP197 T10611111 56015
KRFD 171354Z 16004KT 10SM OVC130 M09/M13 A3008 RMK AO2 SLP201 T10891133
KRFD 171254Z 17004KT 10SM BKN190 OVC210 M10/M14 A3010 RMK AO2 SLP206 T11001144
KRFD 171154Z 15007KT 10SM SCT250 M11/M16 A3012 RMK AO2 SLP212 4/002 T11061156 11100 21117 56017
KRFD 171054Z 17005KT 10SM SCT250 M11/M16 A3014 RMK AO2 SLP219 T11111161
KRFD 170954Z 17008KT 10SM SCT230 M11/M16 A3014 RMK AO2 SLP220 T11111161
KRFD 170854Z 16005KT 10SM SCT240 M12/M16 A3017 RMK AO2 SLP230 T11171156 58026
KRFD 170754Z 17005KT 10SM SCT240 M12/M15 A3022 RMK AO2 SLP247 T11171150
KRFD 170654Z 18004KT 10SM SCT250 M11/M14 A3024 RMK AO2 SLP253 T11061144